createdAt,value
2018-05-12T00:02:14.309Z,23.43
2018-05-12T00:04:43.869Z,25.50
2018-05-12T00:07:13.351Z,23.70
2018-05-12T00:09:42.841Z,23.40
2018-05-12T00:12:12.333Z,24.03
2018-05-12T00:14:41.838Z,23.37
2018-05-12T00:17:11.349Z,23.30
2018-05-12T00:19:40.828Z,23.40
2018-05-12T00:22:10.477Z,24.93
2018-05-12T00:24:40.462Z,25.20
2018-05-12T00:27:08.958Z,24.10
2018-05-12T00:29:37.676Z,24.07
2018-05-12T00:32:06.954Z,25.30
2018-05-12T00:34:34.767Z,28.67
2018-05-12T00:37:03.354Z,26.10
2018-05-12T00:39:31.848Z,25.77
2018-05-12T00:42:00.335Z,24.87
2018-05-12T00:44:28.832Z,25.13
2018-05-12T00:46:57.313Z,24.43
2018-05-12T00:49:25.804Z,23.30
2018-05-12T00:51:54.321Z,23.33
2018-05-12T00:54:23.579Z,26.93
2018-05-12T00:56:52.058Z,26.40
2018-05-12T00:59:20.536Z,27.27
2018-05-12T01:01:49.030Z,24.93
2018-05-12T01:04:17.509Z,25.53
2018-05-12T01:06:45.985Z,26.27
2018-05-12T01:09:14.495Z,25.43
2018-05-12T01:11:42.964Z,22.77
2018-05-12T01:14:13.656Z,22.93
2018-05-12T01:16:42.265Z,25.20
2018-05-12T01:19:10.741Z,24.90
2018-05-12T01:21:39.336Z,23.77
2018-05-12T01:24:08.003Z,23.37
2018-05-12T01:26:36.473Z,22.80
2018-05-12T01:29:04.981Z,25.00
2018-05-12T01:31:33.472Z,22.33
2018-05-12T01:34:01.963Z,24.37
2018-05-12T01:36:30.442Z,25.80
2018-05-12T01:38:58.909Z,24.33
2018-05-12T01:41:27.420Z,23.97
2018-05-12T01:43:55.928Z,24.77
2018-05-12T01:46:24.124Z,25.53
2018-05-12T01:48:53.373Z,26.10
2018-05-12T01:51:21.923Z,24.33
2018-05-12T01:53:50.422Z,26.07
2018-05-12T01:56:18.919Z,24.90
2018-05-12T01:58:47.386Z,23.43
2018-05-12T02:01:16.073Z,25.60
2018-05-12T02:03:44.568Z,22.97
2018-05-12T02:06:13.043Z,23.57
2018-05-12T02:08:41.629Z,24.50
2018-05-12T02:11:10.157Z,24.73
2018-05-12T02:13:38.649Z,23.10
2018-05-12T02:16:07.973Z,24.10
2018-05-12T02:18:36.456Z,24.77
2018-05-12T02:21:04.591Z,24.77
2018-05-12T02:23:33.889Z,25.03
2018-05-12T02:26:02.381Z,22.97
2018-05-12T02:28:31.648Z,23.60
2018-05-12T02:31:00.123Z,22.77
2018-05-12T02:33:28.709Z,23.83
2018-05-12T02:35:56.848Z,24.33
2018-05-12T02:38:25.518Z,24.50
2018-05-12T02:40:54.777Z,25.33
2018-05-12T02:43:23.245Z,24.17
2018-05-12T02:45:51.742Z,24.93
2018-05-12T02:48:20.229Z,26.53
2018-05-12T02:50:48.717Z,25.43
2018-05-12T02:53:17.209Z,23.50
2018-05-12T02:55:45.697Z,26.90
2018-05-12T02:58:14.178Z,26.27
2018-05-12T03:00:42.669Z,27.17
2018-05-12T03:03:11.161Z,27.07
2018-05-12T03:05:40.414Z,27.13
2018-05-12T03:08:09.046Z,26.37
2018-05-12T03:10:38.305Z,27.00
2018-05-12T03:13:06.777Z,26.20
2018-05-12T03:15:35.260Z,27.20
2018-05-12T03:18:03.744Z,25.87
2018-05-12T03:20:32.247Z,26.83
2018-05-12T03:23:00.729Z,27.93
2018-05-12T03:25:29.233Z,26.57
2018-05-12T03:27:57.705Z,27.07
2018-05-12T03:30:26.220Z,27.07
2018-05-12T03:32:54.751Z,26.33
2018-05-12T03:35:23.236Z,27.50
2018-05-12T03:37:51.405Z,25.37
2018-05-12T03:40:19.886Z,25.50
2018-05-12T03:42:48.377Z,25.60
2018-05-12T03:45:16.897Z,24.70
2018-05-12T03:47:46.161Z,25.70
2018-05-12T03:50:14.684Z,26.17
2018-05-12T03:52:43.926Z,27.30
2018-05-12T03:55:12.445Z,25.87
2018-05-12T03:57:40.940Z,26.20
2018-05-12T04:00:09.431Z,25.70
2018-05-12T04:02:37.907Z,25.73
2018-05-12T04:05:17.506Z,28.90
2018-05-12T04:07:57.218Z,25.13
2018-05-12T04:23:52.668Z,26.00
2018-05-12T04:26:21.225Z,27.17
2018-05-12T04:28:49.705Z,29.87
2018-05-12T04:31:18.262Z,28.90
2018-05-12T04:33:46.741Z,29.03
2018-05-12T04:36:15.242Z,27.37
2018-05-12T04:38:44.497Z,28.63
2018-05-12T04:41:12.986Z,27.37
2018-05-12T04:43:41.462Z,26.67
2018-05-12T04:46:09.954Z,29.10
2018-05-12T04:48:38.422Z,26.87
2018-05-12T04:51:06.949Z,28.57
2018-05-12T04:53:36.193Z,28.90
2018-05-12T04:56:04.693Z,28.17
2018-05-12T04:58:33.308Z,28.63
2018-05-12T05:01:01.786Z,28.77
2018-05-12T05:03:30.269Z,33.03
2018-05-12T05:05:58.760Z,30.70
2018-05-12T05:08:28.022Z,32.77
2018-05-12T05:10:56.508Z,28.17
2018-05-12T05:13:25.023Z,27.83
2018-05-12T05:15:55.004Z,28.10
2018-05-12T05:18:23.505Z,29.60
2018-05-12T05:20:51.981Z,31.87
2018-05-12T05:23:20.545Z,32.67
2018-05-12T05:25:49.091Z,33.57
2018-05-12T05:28:17.742Z,34.43
2018-05-12T05:30:46.252Z,37.80
2018-05-12T05:33:15.504Z,34.77
2018-05-12T05:35:44.114Z,36.50
2018-05-12T05:38:12.589Z,36.80
2018-05-12T05:40:41.061Z,36.20
2018-05-12T05:43:09.597Z,37.90
2018-05-12T05:45:39.087Z,39.20
2018-05-12T05:48:08.576Z,40.00
2018-05-12T05:50:38.051Z,40.90
2018-05-12T05:53:07.547Z,40.53
2018-05-12T05:55:37.025Z,39.27
2018-05-12T05:58:06.516Z,40.23
2018-05-12T06:00:35.984Z,38.77
2018-05-12T06:03:05.560Z,39.10
2018-05-12T06:05:35.061Z,38.43
2018-05-12T06:08:04.286Z,38.70
2018-05-12T06:10:33.792Z,41.43
2018-05-12T06:13:03.288Z,42.00
2018-05-12T06:15:32.835Z,43.90
2018-05-12T06:18:02.345Z,40.20
2018-05-12T06:20:32.110Z,42.50
2018-05-12T06:23:01.622Z,39.80
2018-05-12T06:25:31.104Z,38.50
2018-05-12T06:28:00.754Z,36.57
2018-05-12T06:30:30.363Z,36.53
2018-05-12T06:32:59.856Z,36.83
2018-05-12T06:35:29.343Z,38.83
2018-05-12T06:37:58.849Z,37.70
2018-05-12T06:40:28.330Z,38.17
2018-05-12T06:42:57.844Z,38.57
2018-05-12T06:45:27.376Z,36.50
2018-05-12T06:47:56.881Z,38.33
2018-05-12T06:50:26.380Z,37.67
2018-05-12T06:52:56.033Z,37.50
2018-05-12T06:55:24.652Z,37.53
2018-05-12T06:57:53.176Z,37.80
2018-05-12T07:00:21.782Z,36.30
2018-05-12T07:02:50.272Z,35.20
2018-05-12T07:05:18.785Z,36.23
2018-05-12T07:07:47.292Z,36.03
2018-05-12T07:10:16.677Z,36.07
2018-05-12T07:12:45.938Z,35.33
2018-05-12T07:15:14.501Z,36.30
2018-05-12T07:17:42.985Z,36.07
2018-05-12T07:20:11.686Z,35.00
2018-05-12T07:22:40.172Z,34.83
2018-05-12T07:25:08.749Z,35.97
2018-05-12T07:27:37.241Z,38.10
2018-05-12T07:30:05.717Z,37.37
2018-05-12T07:32:34.357Z,37.23
2018-05-12T07:35:03.669Z,36.90
2018-05-12T07:37:33.170Z,37.70
2018-05-12T07:40:02.661Z,39.43
2018-05-12T07:42:32.200Z,36.80
2018-05-12T07:45:01.708Z,34.83
2018-05-12T07:47:31.209Z,34.90
2018-05-12T07:50:00.730Z,35.30
2018-05-12T07:52:30.361Z,35.53
2018-05-12T07:55:00.129Z,35.53
2018-05-12T07:57:29.402Z,34.93
2018-05-12T07:59:57.876Z,35.13
2018-05-12T08:02:26.461Z,35.03
2018-05-12T08:04:54.952Z,32.03
2018-05-12T08:07:23.441Z,33.67
2018-05-12T08:09:52.804Z,33.27
2018-05-12T08:12:21.397Z,32.20
2018-05-12T08:14:49.908Z,32.87
2018-05-12T08:17:18.395Z,33.07
2018-05-12T08:19:46.920Z,31.07
2018-05-12T08:22:15.405Z,30.70
2018-05-12T08:24:43.929Z,30.97
2018-05-12T08:27:12.419Z,28.33
2018-05-12T08:29:40.852Z,30.03
2018-05-12T08:32:09.360Z,31.43
2018-05-12T08:34:37.852Z,27.73
2018-05-12T08:37:07.348Z,28.87
2018-05-12T08:39:36.856Z,31.30
2018-05-12T08:42:06.370Z,26.30
2018-05-12T08:44:35.864Z,28.07
2018-05-12T08:47:05.392Z,24.13
2018-05-12T08:49:34.891Z,24.10
2018-05-12T08:52:04.489Z,26.17
2018-05-12T08:54:34.119Z,23.00
2018-05-12T08:57:03.624Z,20.30
2018-05-12T08:59:33.170Z,19.27
2018-05-12T09:02:02.685Z,20.80
2018-05-12T09:04:32.188Z,19.53
2018-05-12T09:07:01.676Z,23.30
2018-05-12T09:09:31.201Z,26.47
2018-05-12T09:12:00.815Z,22.70
2018-05-12T09:14:30.337Z,17.60
2018-05-12T09:16:59.869Z,17.10
2018-05-12T09:19:29.375Z,17.37
2018-05-12T09:21:58.875Z,17.17
2018-05-12T09:24:28.365Z,17.60
2018-05-12T09:26:57.880Z,16.00
2018-05-12T09:29:27.398Z,16.10
2018-05-12T09:31:57.000Z,13.30
2018-05-12T09:34:26.494Z,13.83
2018-05-12T09:36:55.997Z,9.10
2018-05-12T09:39:25.635Z,16.73
2018-05-12T09:41:55.145Z,14.87
2018-05-12T09:44:24.829Z,14.90
2018-05-12T09:46:54.328Z,8.43
2018-05-12T09:49:23.892Z,12.17
2018-05-12T09:51:53.418Z,8.27
2018-05-12T09:54:22.941Z,13.30
2018-05-12T09:56:52.422Z,13.13
2018-05-12T09:59:21.988Z,11.80
2018-05-12T10:01:51.690Z,6.80
2018-05-12T10:04:21.191Z,8.10
2018-05-12T10:06:50.708Z,8.87
2018-05-12T10:09:20.207Z,8.90
2018-05-12T10:11:49.872Z,7.47
2018-05-12T10:14:19.377Z,5.27
2018-05-12T10:16:49.152Z,6.90
2018-05-12T10:19:18.707Z,7.27
2018-05-12T10:21:48.333Z,8.83
2018-05-12T10:24:17.857Z,8.53
2018-05-12T10:26:47.404Z,8.33
2018-05-12T10:29:16.891Z,11.60
2018-05-12T10:31:46.388Z,10.00
2018-05-12T10:34:15.873Z,9.63
2018-05-12T10:36:45.348Z,12.50
2018-05-12T10:39:14.908Z,10.40
2018-05-12T10:41:44.413Z,10.33
2018-05-12T10:44:13.930Z,10.63
2018-05-12T10:46:43.462Z,12.60
2018-05-12T10:49:12.993Z,11.47
2018-05-12T10:51:42.480Z,12.50
2018-05-12T10:54:12.161Z,11.93
2018-05-12T10:56:41.641Z,11.93
2018-05-12T10:59:11.147Z,13.93
2018-05-12T11:01:41.061Z,12.73
2018-05-12T11:04:11.287Z,14.40
2018-05-12T11:06:40.804Z,13.33
2018-05-12T11:09:10.388Z,14.70
2018-05-12T11:11:39.889Z,14.50
2018-05-12T11:14:09.365Z,15.80
2018-05-12T11:16:38.872Z,16.37
2018-05-12T11:19:08.354Z,11.77
2018-05-12T11:21:37.999Z,13.50
2018-05-12T11:24:07.568Z,14.13
2018-05-12T11:26:37.103Z,12.10
2018-05-12T11:29:06.754Z,10.90
2018-05-12T11:31:36.345Z,13.00
2018-05-12T11:34:05.961Z,10.77
2018-05-12T11:36:35.462Z,11.00
2018-05-12T11:39:04.625Z,12.43
2018-05-12T11:41:34.165Z,9.60
2018-05-12T11:44:03.649Z,8.67
2018-05-12T11:46:33.137Z,9.47
2018-05-12T11:49:02.684Z,9.00
2018-05-12T11:51:32.223Z,8.90
2018-05-12T11:54:01.952Z,8.80
2018-05-12T11:56:31.617Z,7.50
2018-05-12T11:59:01.095Z,8.57
2018-05-12T12:01:30.621Z,7.20
2018-05-12T12:04:00.125Z,7.27
2018-05-12T12:06:29.621Z,5.67
2018-05-12T12:08:59.089Z,5.93
2018-05-12T12:11:28.917Z,6.33
2018-05-12T12:13:58.409Z,8.50
2018-05-12T12:16:27.890Z,5.80
2018-05-12T12:18:57.390Z,7.03
2018-05-12T12:21:26.949Z,6.07
2018-05-12T12:23:56.492Z,8.10
2018-05-12T12:26:26.048Z,7.10
2018-05-12T12:28:55.548Z,5.70
2018-05-12T12:31:25.037Z,6.40
2018-05-12T12:33:54.522Z,6.47
2018-05-12T12:36:24.104Z,6.40
2018-05-12T12:38:53.366Z,7.10
2018-05-12T12:41:22.654Z,6.87
2018-05-12T12:43:52.132Z,6.33
2018-05-12T12:46:21.642Z,5.90
2018-05-12T12:48:51.142Z,5.77
2018-05-12T12:51:20.646Z,5.50
2018-05-12T12:53:50.172Z,5.67
2018-05-12T12:56:19.667Z,5.90
2018-05-12T12:58:49.153Z,5.70
2018-05-12T13:01:18.644Z,5.20
2018-05-12T13:03:48.144Z,4.93
2018-05-12T13:06:17.637Z,6.07
2018-05-12T13:08:47.113Z,5.17
2018-05-12T13:11:16.598Z,6.30
2018-05-12T13:13:46.093Z,5.03
2018-05-12T13:16:15.566Z,4.30
2018-05-12T13:18:45.125Z,4.67
2018-05-12T13:21:14.621Z,4.70
2018-05-12T13:23:44.198Z,4.20
2018-05-12T13:26:13.674Z,4.20
2018-05-12T13:28:43.204Z,4.63
2018-05-12T13:31:12.672Z,4.53
2018-05-12T13:33:42.164Z,4.30
2018-05-12T13:36:11.676Z,4.50
2018-05-12T13:38:41.311Z,4.33
2018-05-12T13:41:10.793Z,4.67
2018-05-12T13:43:40.284Z,4.80
2018-05-12T13:46:09.780Z,4.77
2018-05-12T13:48:39.281Z,4.43
2018-05-12T13:51:08.760Z,4.77
2018-05-12T13:53:38.268Z,4.70
2018-05-12T13:56:07.734Z,4.27
2018-05-12T13:58:37.216Z,4.00
2018-05-12T14:01:06.353Z,5.07
2018-05-12T14:03:35.896Z,4.20
2018-05-12T14:06:05.404Z,4.40
2018-05-12T14:08:34.876Z,4.37
2018-05-12T14:11:04.374Z,4.93
2018-05-12T14:13:33.885Z,3.97
2018-05-12T14:16:03.457Z,3.60
2018-05-12T14:18:33.141Z,5.00
2018-05-12T14:21:02.634Z,4.57
2018-05-12T14:23:32.185Z,3.50
2018-05-12T14:26:02.600Z,3.63
2018-05-12T14:28:32.088Z,4.23
2018-05-12T14:31:01.586Z,4.40
2018-05-12T14:33:31.183Z,3.80
2018-05-12T14:36:00.789Z,4.20
2018-05-12T14:38:30.285Z,4.00
2018-05-12T14:40:59.769Z,4.27
2018-05-12T14:43:29.276Z,4.47
2018-05-12T14:45:58.764Z,3.57
2018-05-12T14:48:28.372Z,3.57
2018-05-12T14:50:57.844Z,4.07
2018-05-12T14:53:27.370Z,3.80
2018-05-12T14:55:56.876Z,4.57
2018-05-12T14:58:26.377Z,4.40
2018-05-12T15:00:55.869Z,4.40
2018-05-12T15:03:25.364Z,5.00
2018-05-12T15:05:54.845Z,4.30
2018-05-12T15:08:24.337Z,4.30
2018-05-12T15:10:54.016Z,4.03
2018-05-12T15:13:23.492Z,3.33
2018-05-12T15:15:53.025Z,3.50
2018-05-12T15:18:23.333Z,3.47
2018-05-12T15:20:52.860Z,3.13
2018-05-12T15:23:22.355Z,3.50
2018-05-12T15:25:51.832Z,3.47
2018-05-12T15:28:21.332Z,3.63
2018-05-12T15:30:50.805Z,3.77
2018-05-12T15:33:20.309Z,3.80
2018-05-12T15:35:49.780Z,3.83
2018-05-12T15:38:19.291Z,3.80
2018-05-12T15:40:48.830Z,3.87
2018-05-12T15:43:18.304Z,3.60
2018-05-12T15:45:47.897Z,4.07
2018-05-12T15:48:17.377Z,4.00
2018-05-12T15:50:46.873Z,4.00
2018-05-12T15:53:16.376Z,4.77
2018-05-12T15:55:45.900Z,3.90
2018-05-12T15:58:15.372Z,4.00
2018-05-12T16:00:44.858Z,4.17
2018-05-12T16:03:14.353Z,3.70
2018-05-12T16:05:44.031Z,3.60
2018-05-12T16:08:13.520Z,3.67
2018-05-12T16:10:43.005Z,3.50
2018-05-12T16:13:12.620Z,3.90
2018-05-12T16:15:42.129Z,3.97
2018-05-12T16:18:11.625Z,4.20
2018-05-12T16:20:41.096Z,3.77
2018-05-12T16:23:10.602Z,3.70
2018-05-12T16:25:40.127Z,3.80
2018-05-12T16:28:09.632Z,4.40
2018-05-12T16:30:39.145Z,3.63
2018-05-12T16:33:08.703Z,4.27
2018-05-12T16:35:38.181Z,4.70
2018-05-12T16:38:07.681Z,4.60
2018-05-12T16:40:37.167Z,4.70
2018-05-12T16:43:06.663Z,4.13
2018-05-12T16:45:36.141Z,3.63
2018-05-12T16:48:05.612Z,3.73
2018-05-12T16:50:35.254Z,3.47
2018-05-12T16:53:04.821Z,3.53
2018-05-12T16:55:34.324Z,3.90
2018-05-12T16:58:03.800Z,4.07
2018-05-12T17:00:33.281Z,3.80
2018-05-12T17:03:02.789Z,3.80
2018-05-12T17:05:32.256Z,3.77
2018-05-12T17:08:01.764Z,4.50
2018-05-12T17:10:31.249Z,3.40
2018-05-12T17:13:00.768Z,3.50
2018-05-12T17:15:30.310Z,4.00
2018-05-12T17:17:59.817Z,3.77
2018-05-12T17:20:29.476Z,4.07
2018-05-12T17:22:58.968Z,4.13
2018-05-12T17:25:28.477Z,3.67
2018-05-12T17:27:57.984Z,4.00
2018-05-12T17:30:27.548Z,4.47
2018-05-12T17:32:57.028Z,4.10
2018-05-12T17:35:26.612Z,3.77
2018-05-12T17:37:56.140Z,3.90
2018-05-12T17:40:25.812Z,4.50
2018-05-12T17:42:55.401Z,4.40
2018-05-12T17:45:24.904Z,4.37
2018-05-12T17:47:54.382Z,4.27
2018-05-12T17:50:23.883Z,5.50
2018-05-12T17:52:53.375Z,4.17
2018-05-12T17:55:22.869Z,4.50
2018-05-12T17:57:52.358Z,4.80
2018-05-12T18:00:21.847Z,4.07
2018-05-12T18:02:51.385Z,4.40
2018-05-12T18:05:20.988Z,4.40
2018-05-12T18:07:50.461Z,4.07
2018-05-12T18:10:19.971Z,4.10
2018-05-12T18:12:49.468Z,4.83
2018-05-12T18:15:18.971Z,4.87
2018-05-12T18:17:48.495Z,5.50
2018-05-12T18:20:18.072Z,4.07
2018-05-12T18:22:47.567Z,4.40
2018-05-12T18:25:17.056Z,4.07
2018-05-12T18:27:46.572Z,4.80
2018-05-12T18:30:16.079Z,5.50
2018-05-12T18:32:45.693Z,4.73
2018-05-12T18:35:15.177Z,5.30
2018-05-12T18:37:44.638Z,4.60
2018-05-12T18:40:14.141Z,5.00
2018-05-12T18:42:43.677Z,5.83
2018-05-12T18:45:13.278Z,5.90
2018-05-12T18:47:42.442Z,6.07
2018-05-12T18:50:11.948Z,5.33
2018-05-12T18:52:41.433Z,5.80
2018-05-12T18:55:10.901Z,5.30
2018-05-12T18:57:40.396Z,5.73
2018-05-12T19:00:09.900Z,5.43
2018-05-12T19:02:39.407Z,6.43
2018-05-12T19:05:08.972Z,10.53
2018-05-12T19:07:38.481Z,8.90
2018-05-12T19:10:07.956Z,7.17
2018-05-12T19:12:37.455Z,8.30
2018-05-12T19:15:06.960Z,7.50
2018-05-12T19:17:36.513Z,7.63
2018-05-12T19:20:05.874Z,21.00
2018-05-12T19:22:35.433Z,13.37
2018-05-12T19:25:04.929Z,11.03
2018-05-12T19:27:34.476Z,6.80
2018-05-12T19:30:03.693Z,6.90
2018-05-12T19:32:33.182Z,5.90
2018-05-12T19:35:02.682Z,6.30
2018-05-12T19:37:32.493Z,6.70
2018-05-12T19:40:02.000Z,6.40
2018-05-12T19:42:31.520Z,12.00
2018-05-12T19:45:01.065Z,44.53
2018-05-12T19:47:30.567Z,66.00
2018-05-12T19:50:00.119Z,13.53
2018-05-12T19:52:29.635Z,13.77
2018-05-12T19:54:59.197Z,12.03
2018-05-12T19:57:28.692Z,12.90
2018-05-12T19:59:58.226Z,8.57
2018-05-12T20:02:27.723Z,6.70
2018-05-12T20:04:57.231Z,61.33
2018-05-12T20:07:26.756Z,29.17
2018-05-12T20:09:56.241Z,7.23
2018-05-12T20:12:25.410Z,8.00
2018-05-12T20:14:54.896Z,7.67
2018-05-12T20:17:24.474Z,12.47
2018-05-12T20:19:53.966Z,10.40
2018-05-12T20:22:23.480Z,9.90
2018-05-12T20:24:52.968Z,8.97
2018-05-12T20:27:22.665Z,7.93
2018-05-12T20:29:52.192Z,7.10
2018-05-12T20:32:21.699Z,8.83
2018-05-12T20:34:52.264Z,8.17
2018-05-12T20:37:21.917Z,8.90
2018-05-12T20:39:51.497Z,7.97
2018-05-12T20:42:20.998Z,9.40
2018-05-12T20:44:50.513Z,8.83
2018-05-12T20:47:20.016Z,8.23
2018-05-12T20:49:49.616Z,16.87
2018-05-12T20:52:19.177Z,25.43
2018-05-12T20:54:48.665Z,17.23
2018-05-12T20:57:18.160Z,11.17
2018-05-12T20:59:47.665Z,9.23
2018-05-12T21:02:17.281Z,9.20
2018-05-12T21:04:46.880Z,10.27
2018-05-12T21:07:16.366Z,12.03
2018-05-12T21:09:45.930Z,12.53
2018-05-12T21:12:15.434Z,13.53
2018-05-12T21:14:44.945Z,12.67
2018-05-12T21:17:14.465Z,18.20
2018-05-12T21:19:43.978Z,19.40
2018-05-12T21:22:13.479Z,21.17
2018-05-12T21:24:42.990Z,14.03
2018-05-12T21:27:12.495Z,15.77
2018-05-12T21:29:41.971Z,13.90
2018-05-12T21:32:11.465Z,11.30
2018-05-12T21:34:41.028Z,8.13
2018-05-12T21:37:10.668Z,8.63
2018-05-12T21:39:40.148Z,6.73
2018-05-12T21:42:09.648Z,41.33
2018-05-12T21:44:39.297Z,7.33
2018-05-12T21:47:08.908Z,6.33
2018-05-12T21:49:38.422Z,6.20
2018-05-12T21:52:07.896Z,5.53
2018-05-12T21:54:37.427Z,5.97
2018-05-12T21:57:06.921Z,6.27
2018-05-12T21:59:36.169Z,6.47
2018-05-12T22:02:05.665Z,6.73
2018-05-12T22:04:35.166Z,5.40
2018-05-12T22:07:04.731Z,5.10
2018-05-12T22:09:34.233Z,4.93
2018-05-12T22:12:03.716Z,4.80
2018-05-12T22:14:33.352Z,5.53
2018-05-12T22:17:02.874Z,5.60
2018-05-12T22:19:32.386Z,5.77
2018-05-12T22:22:01.906Z,4.50
2018-05-12T22:24:31.386Z,5.03
2018-05-12T22:27:00.865Z,5.90
2018-05-12T22:29:30.411Z,5.47
2018-05-12T22:31:59.895Z,5.70
2018-05-12T22:34:29.422Z,5.73
2018-05-12T22:36:58.913Z,5.60
2018-05-12T22:39:28.424Z,5.10
2018-05-12T22:41:57.924Z,10.97
2018-05-12T22:44:27.449Z,204.17
2018-05-12T22:46:56.937Z,16.10
2018-05-12T22:49:26.429Z,5.73
2018-05-12T22:51:55.909Z,5.60
2018-05-12T22:54:25.519Z,5.20
2018-05-12T22:56:55.178Z,5.53
2018-05-12T22:59:24.664Z,5.70
2018-05-12T23:01:54.164Z,5.37
2018-05-12T23:04:23.643Z,6.83
2018-05-12T23:06:53.376Z,5.53
2018-05-12T23:09:22.933Z,7.20
2018-05-12T23:11:52.564Z,7.90
2018-05-12T23:14:22.053Z,7.27
2018-05-12T23:16:51.556Z,7.97
2018-05-12T23:19:21.108Z,7.60
2018-05-12T23:21:50.624Z,6.63
2018-05-12T23:24:20.117Z,7.00
2018-05-12T23:26:49.633Z,6.20
2018-05-12T23:29:19.368Z,7.10
2018-05-12T23:31:48.912Z,7.00
2018-05-12T23:34:18.404Z,6.07
2018-05-12T23:36:47.941Z,7.37
2018-05-12T23:39:17.438Z,6.90
2018-05-12T23:41:46.969Z,7.13
2018-05-12T23:44:16.474Z,7.40
2018-05-12T23:46:45.949Z,8.47
2018-05-12T23:49:15.442Z,8.40
2018-05-12T23:51:44.973Z,25.57
2018-05-12T23:54:14.453Z,37.03
2018-05-12T23:56:43.957Z,7.80
2018-05-12T23:59:13.616Z,7.50
